createdAt,value
2022-10-23T00:01:30.609Z,100.00
2022-10-23T00:03:59.800Z,100.00
2022-10-23T00:06:27.042Z,100.00
2022-10-23T00:08:53.643Z,100.00
2022-10-23T00:11:23.045Z,100.00
2022-10-23T00:13:50.687Z,100.00
2022-10-23T00:16:16.975Z,100.00
2022-10-23T00:18:43.495Z,100.00
2022-10-23T00:21:11.579Z,100.00
2022-10-23T00:23:37.752Z,100.00
2022-10-23T00:26:04.652Z,100.00
2022-10-23T00:28:31.142Z,100.00
2022-10-23T00:30:57.295Z,100.00
2022-10-23T00:33:23.401Z,100.00
2022-10-23T00:35:49.488Z,100.00
2022-10-23T00:38:15.584Z,100.00
2022-10-23T00:40:44.101Z,100.00
2022-10-23T00:43:18.403Z,100.00
2022-10-23T00:45:44.533Z,100.00
2022-10-23T00:48:10.844Z,100.00
2022-10-23T00:50:37.595Z,100.00
2022-10-23T00:53:05.044Z,100.00
2022-10-23T00:55:33.351Z,100.00
2022-10-23T00:57:59.938Z,100.00
2022-10-23T01:00:29.206Z,100.00
2022-10-23T01:02:57.440Z,100.00
2022-10-23T01:05:30.527Z,100.00
2022-10-23T01:08:02.799Z,100.00
2022-10-23T01:10:45.016Z,100.00
2022-10-23T01:13:30.880Z,100.00
2022-10-23T01:16:06.253Z,100.00
2022-10-23T01:18:56.288Z,100.00
2022-10-23T01:21:47.470Z,100.00
2022-10-23T13:26:45.396Z,75.05
2022-10-23T13:29:28.710Z,76.06
2022-10-23T13:31:54.826Z,77.14
2022-10-23T13:34:27.207Z,75.77
2022-10-23T13:37:02.907Z,75.30
2022-10-23T13:39:31.726Z,74.89
2022-10-23T13:42:11.355Z,74.65
2022-10-23T13:44:38.111Z,75.83
2022-10-23T13:47:04.712Z,76.11
2022-10-23T13:49:31.027Z,75.63
2022-10-23T13:51:57.148Z,75.94
2022-10-23T13:57:15.899Z,76.01
2022-10-23T13:59:42.768Z,76.37
2022-10-23T14:02:18.871Z,75.27
2022-10-23T14:04:46.428Z,75.80
2022-10-23T14:07:12.659Z,75.92
2022-10-23T14:09:38.888Z,76.20
2022-10-23T14:12:05.111Z,75.77
2022-10-23T14:14:31.408Z,75.31
2022-10-23T14:16:57.506Z,76.01
2022-10-23T14:19:23.624Z,76.24
2022-10-23T14:21:49.743Z,76.91
2022-10-23T14:24:15.880Z,77.54
2022-10-23T14:26:43.216Z,78.19
2022-10-23T14:29:10.476Z,78.71
2022-10-23T14:31:42.399Z,78.85
2022-10-23T14:34:08.635Z,79.63
2022-10-23T14:36:43.628Z,80.33
2022-10-23T14:39:16.764Z,80.86
2022-10-23T14:41:42.903Z,81.17
2022-10-23T14:44:09.027Z,82.02
2022-10-23T14:46:35.763Z,82.13
2022-10-23T14:49:02.597Z,83.01
2022-10-23T14:51:30.763Z,83.91
2022-10-23T14:54:04.903Z,85.00
2022-10-23T14:56:35.790Z,85.74
2022-10-23T14:59:05.138Z,86.62
2022-10-23T15:01:40.123Z,87.38
2022-10-23T15:04:08.996Z,88.25
2022-10-23T15:06:35.970Z,89.04
2022-10-23T15:09:03.046Z,89.23
2022-10-23T15:11:29.154Z,89.88
2022-10-23T15:13:55.426Z,90.61
2022-10-23T15:16:23.049Z,91.38
2022-10-23T15:18:49.586Z,92.90
2022-10-23T15:21:16.047Z,93.46
2022-10-23T15:23:44.757Z,93.92
2022-10-23T15:26:23.382Z,94.79
2022-10-23T15:28:54.473Z,95.00
2022-10-23T15:31:43.452Z,95.37
2022-10-23T15:34:15.957Z,95.88
2022-10-23T15:36:42.897Z,96.40
2022-10-23T15:39:10.585Z,96.65
2022-10-23T15:41:38.765Z,97.21
2022-10-23T15:44:06.569Z,97.94
2022-10-23T15:46:33.216Z,98.23
2022-10-23T15:48:59.356Z,98.74
2022-10-23T15:51:25.803Z,100.00
2022-10-23T15:53:52.464Z,99.97
2022-10-23T15:56:18.717Z,100.00
2022-10-23T15:58:44.883Z,100.00
2022-10-23T16:01:11.290Z,100.00
2022-10-23T16:03:38.814Z,100.00
2022-10-23T16:06:07.677Z,100.00
2022-10-23T16:08:33.848Z,100.00
2022-10-23T16:10:59.999Z,100.00
2022-10-23T16:13:26.813Z,100.00
2022-10-23T16:15:54.147Z,100.00
2022-10-23T16:18:21.385Z,100.00
2022-10-23T16:20:47.577Z,100.00
2022-10-23T16:23:13.752Z,100.00
2022-10-23T16:25:39.882Z,100.00
2022-10-23T16:28:06.039Z,100.00
2022-10-23T16:30:32.243Z,100.00
2022-10-23T16:32:58.374Z,100.00
2022-10-23T16:35:24.764Z,100.00
2022-10-23T16:38:03.262Z,100.00
2022-10-23T16:40:29.395Z,100.00
2022-10-23T16:43:13.954Z,100.00
2022-10-23T16:46:12.942Z,100.00
2022-10-23T16:48:39.368Z,100.00
2022-10-23T16:51:11.035Z,100.00
2022-10-23T16:53:37.474Z,100.00
2022-10-23T16:56:05.637Z,100.00
2022-10-23T16:58:32.343Z,100.00
2022-10-23T17:01:00.907Z,100.00
2022-10-23T17:03:27.718Z,100.00
2022-10-23T17:05:56.425Z,100.00
2022-10-23T17:08:24.557Z,100.00
2022-10-23T17:10:50.711Z,100.00
2022-10-23T17:13:16.923Z,100.00
2022-10-23T17:15:43.177Z,100.00
2022-10-23T17:18:09.407Z,100.00
2022-10-23T17:20:35.613Z,100.00
2022-10-23T17:23:01.721Z,100.00
2022-10-23T17:25:27.838Z,100.00
2022-10-23T17:27:53.936Z,100.00
2022-10-23T17:30:20.089Z,100.00
2022-10-23T17:32:46.737Z,100.00
2022-10-23T17:35:13.247Z,100.00
2022-10-23T17:37:39.395Z,100.00
2022-10-23T17:40:07.150Z,100.00
2022-10-23T17:42:33.290Z,100.00
2022-10-23T17:44:59.430Z,100.00
2022-10-23T17:47:25.588Z,100.00
2022-10-23T17:49:51.706Z,100.00
2022-10-23T17:52:17.830Z,100.00
2022-10-23T17:54:43.955Z,100.00
2022-10-23T17:57:10.132Z,100.00
2022-10-23T17:59:37.599Z,100.00
2022-10-23T18:02:03.850Z,100.00
2022-10-23T18:04:30.103Z,100.00
2022-10-23T18:06:56.231Z,100.00
2022-10-23T18:09:23.186Z,100.00
2022-10-23T18:11:49.964Z,100.00
2022-10-23T18:14:17.767Z,100.00
2022-10-23T18:16:45.860Z,100.00
2022-10-23T18:19:12.975Z,100.00
2022-10-23T18:21:40.225Z,100.00
2022-10-23T18:24:06.587Z,100.00
2022-10-23T18:26:35.221Z,100.00
2022-10-23T18:29:04.288Z,100.00
2022-10-23T18:31:30.640Z,100.00
2022-10-23T18:34:07.606Z,100.00
2022-10-23T18:36:37.945Z,100.00
2022-10-23T18:39:05.829Z,100.00
2022-10-23T18:41:37.474Z,100.00
2022-10-23T18:44:04.156Z,100.00
2022-10-23T18:46:30.353Z,100.00
2022-10-23T18:48:56.483Z,100.00
2022-10-23T18:51:25.360Z,100.00
2022-10-23T18:53:52.458Z,100.00
2022-10-23T18:56:22.813Z,100.00
2022-10-23T18:58:50.911Z,100.00
2022-10-23T19:01:18.506Z,100.00
2022-10-23T19:03:44.749Z,100.00
2022-10-23T19:06:10.897Z,100.00
2022-10-23T19:08:38.764Z,100.00
2022-10-23T19:11:09.311Z,100.00
2022-10-23T19:13:39.122Z,100.00
2022-10-23T19:16:14.769Z,100.00
2022-10-23T19:18:44.495Z,100.00
2022-10-23T19:21:10.985Z,100.00
2022-10-23T19:23:40.220Z,100.00
2022-10-23T19:26:09.404Z,100.00
2022-10-23T19:28:41.047Z,100.00
2022-10-23T19:31:09.899Z,100.00
2022-10-23T19:33:38.555Z,100.00
2022-10-23T19:36:07.901Z,100.00
2022-10-23T19:38:36.231Z,100.00
2022-10-23T19:41:03.947Z,100.00
2022-10-23T19:43:30.070Z,100.00
2022-10-23T19:45:56.188Z,100.00
2022-10-23T19:48:22.310Z,100.00
2022-10-23T19:50:48.414Z,100.00
2022-10-23T19:53:16.916Z,100.00
2022-10-23T19:55:43.079Z,100.00
2022-10-23T19:58:09.270Z,100.00
2022-10-23T20:00:35.977Z,100.00
2022-10-23T20:03:02.107Z,100.00
2022-10-23T20:05:28.298Z,100.00
2022-10-23T20:07:55.438Z,100.00
2022-10-23T20:10:21.585Z,100.00
2022-10-23T20:12:56.722Z,100.00
2022-10-23T20:15:28.636Z,100.00
2022-10-23T20:17:54.738Z,100.00
2022-10-23T20:20:20.887Z,100.00
2022-10-23T20:22:47.478Z,100.00
2022-10-23T20:25:14.670Z,100.00
2022-10-23T20:27:40.801Z,100.00
2022-10-23T20:30:07.465Z,100.00
2022-10-23T20:32:33.821Z,100.00
2022-10-23T20:35:00.751Z,100.00
2022-10-23T20:37:26.916Z,100.00
2022-10-23T20:39:55.176Z,100.00
2022-10-23T20:42:21.357Z,100.00
2022-10-23T20:44:47.474Z,100.00
2022-10-23T20:47:13.867Z,100.00
2022-10-23T20:49:40.026Z,100.00
2022-10-23T20:52:06.145Z,100.00
2022-10-23T20:54:32.466Z,100.00
2022-10-23T20:56:59.015Z,100.00
2022-10-23T20:59:25.387Z,100.00
2022-10-23T21:01:53.448Z,100.00
2022-10-23T21:04:22.567Z,100.00
2022-10-23T21:07:10.860Z,100.00
2022-10-23T21:09:38.072Z,100.00
2022-10-23T21:12:04.774Z,100.00
2022-10-23T21:14:30.936Z,100.00
2022-10-23T21:16:57.057Z,100.00
2022-10-23T21:19:23.170Z,100.00
2022-10-23T21:21:49.273Z,100.00
2022-10-23T21:24:17.182Z,100.00
2022-10-23T21:26:44.383Z,100.00
2022-10-23T21:29:19.869Z,100.00
2022-10-23T21:31:55.093Z,100.00
2022-10-23T21:34:22.082Z,100.00
2022-10-23T21:37:11.337Z,100.00
2022-10-23T21:39:34.503Z,100.00
2022-10-23T21:42:00.643Z,100.00
2022-10-23T21:44:26.859Z,100.00
2022-10-23T21:46:52.999Z,100.00
2022-10-23T21:49:19.101Z,100.00
2022-10-23T21:51:45.235Z,100.00
2022-10-23T21:54:13.355Z,100.00
2022-10-23T21:56:48.633Z,100.00
2022-10-23T21:59:18.044Z,100.00
2022-10-23T22:01:46.204Z,100.00
2022-10-23T22:04:14.436Z,100.00
2022-10-23T22:06:41.851Z,100.00
2022-10-23T22:09:10.840Z,100.00
2022-10-23T22:11:37.037Z,100.00
2022-10-23T22:14:03.193Z,100.00
2022-10-23T22:16:30.516Z,100.00
2022-10-23T22:18:57.064Z,100.00
2022-10-23T22:21:26.584Z,100.00
2022-10-23T22:23:55.843Z,100.00
2022-10-23T22:26:26.363Z,100.00
2022-10-23T22:28:59.409Z,100.00
2022-10-23T22:31:28.785Z,100.00
2022-10-23T22:33:56.526Z,100.00
2022-10-23T22:36:23.141Z,100.00
2022-10-23T22:38:49.271Z,100.00
2022-10-23T22:41:16.384Z,100.00
2022-10-23T22:43:42.729Z,100.00
2022-10-23T22:46:10.587Z,100.00
2022-10-23T22:48:37.277Z,100.00
2022-10-23T22:51:07.279Z,100.00
2022-10-23T22:53:35.109Z,100.00
2022-10-23T22:56:01.260Z,100.00
2022-10-23T22:58:27.670Z,100.00
2022-10-23T23:01:02.813Z,100.00
2022-10-23T23:03:28.983Z,100.00
2022-10-23T23:05:55.132Z,100.00
2022-10-23T23:08:21.263Z,100.00
2022-10-23T23:10:54.221Z,100.00
2022-10-23T23:13:20.353Z,100.00
2022-10-23T23:15:46.454Z,100.00
2022-10-23T23:18:12.572Z,100.00
2022-10-23T23:20:38.724Z,100.00
2022-10-23T23:23:04.849Z,100.00
2022-10-23T23:25:31.044Z,100.00
2022-10-23T23:27:57.751Z,100.00
2022-10-23T23:30:24.619Z,100.00
2022-10-23T23:32:51.583Z,100.00
2022-10-23T23:35:19.118Z,100.00
2022-10-23T23:37:45.247Z,100.00
2022-10-23T23:40:12.074Z,100.00
2022-10-23T23:42:38.238Z,100.00
2022-10-23T23:45:14.405Z,100.00
2022-10-23T23:47:41.351Z,100.00
2022-10-23T23:50:09.290Z,100.00
2022-10-23T23:52:35.522Z,100.00
2022-10-23T23:55:01.645Z,100.00
2022-10-23T23:57:27.762Z,100.00
2022-10-23T23:59:53.939Z,100.00
